sensor_id;sensor_type;location;lat;lon;timestamp;temperature;humidity
33105;DHT22;19476;51.448;6.674;2023-04-03T00:01:36;11.60;43.80
33105;DHT22;19476;51.448;6.674;2023-04-03T00:04:04;11.60;43.90
33105;DHT22;19476;51.448;6.674;2023-04-03T00:06:31;11.60;44.00
33105;DHT22;19476;51.448;6.674;2023-04-03T00:08:57;11.60;44.00
33105;DHT22;19476;51.448;6.674;2023-04-03T00:11:23;11.60;44.00
33105;DHT22;19476;51.448;6.674;2023-04-03T00:13:49;11.50;44.00
33105;DHT22;19476;51.448;6.674;2023-04-03T00:16:15;11.50;44.00
33105;DHT22;19476;51.448;6.674;2023-04-03T00:18:41;11.50;44.00
33105;DHT22;19476;51.448;6.674;2023-04-03T00:21:09;11.40;44.10
33105;DHT22;19476;51.448;6.674;2023-04-03T00:23:37;11.40;44.20
33105;DHT22;19476;51.448;6.674;2023-04-03T00:26:03;11.40;44.20
33105;DHT22;19476;51.448;6.674;2023-04-03T00:28:29;11.70;44.50
33105;DHT22;19476;51.448;6.674;2023-04-03T00:30:54;11.30;44.30
33105;DHT22;19476;51.448;6.674;2023-04-03T00:33:20;11.30;44.40
33105;DHT22;19476;51.448;6.674;2023-04-03T00:35:48;11.30;44.50
33105;DHT22;19476;51.448;6.674;2023-04-03T00:38:14;11.30;44.70
33105;DHT22;19476;51.448;6.674;2023-04-03T00:40:43;11.30;44.70
33105;DHT22;19476;51.448;6.674;2023-04-03T00:43:23;11.30;44.80
33105;DHT22;19476;51.448;6.674;2023-04-03T00:45:53;11.30;45.00
33105;DHT22;19476;51.448;6.674;2023-04-03T00:51:21;11.20;44.70
33105;DHT22;19476;51.448;6.674;2023-04-03T00:53:52;11.20;44.80
33105;DHT22;19476;51.448;6.674;2023-04-03T00:56:21;11.10;44.90
33105;DHT22;19476;51.448;6.674;2023-04-03T00:58:59;11.10;45.00
33105;DHT22;19476;51.448;6.674;2023-04-03T01:01:28;11.00;45.00
33105;DHT22;19476;51.448;6.674;2023-04-03T01:03:54;11.00;45.10
33105;DHT22;19476;51.448;6.674;2023-04-03T01:06:24;11.00;45.20
33105;DHT22;19476;51.448;6.674;2023-04-03T01:08:52;11.00;45.30
33105;DHT22;19476;51.448;6.674;2023-04-03T01:11:18;11.00;45.40
33105;DHT22;19476;51.448;6.674;2023-04-03T01:13:44;11.00;45.40
33105;DHT22;19476;51.448;6.674;2023-04-03T01:16:10;11.00;45.50
33105;DHT22;19476;51.448;6.674;2023-04-03T01:18:38;11.00;45.40
33105;DHT22;19476;51.448;6.674;2023-04-03T01:26:27;11.00;45.40
33105;DHT22;19476;51.448;6.674;2023-04-03T01:28:54;11.10;45.40
33105;DHT22;19476;51.448;6.674;2023-04-03T01:31:57;11.10;45.50
33105;DHT22;19476;51.448;6.674;2023-04-03T01:34:15;11.10;45.60
33105;DHT22;19476;51.448;6.674;2023-04-03T01:36:41;11.10;45.40
33105;DHT22;19476;51.448;6.674;2023-04-03T01:39:07;11.10;45.40
33105;DHT22;19476;51.448;6.674;2023-04-03T01:41:33;11.10;45.30
33105;DHT22;19476;51.448;6.674;2023-04-03T01:43:59;11.10;45.30
33105;DHT22;19476;51.448;6.674;2023-04-03T01:46:25;11.10;45.30
33105;DHT22;19476;51.448;6.674;2023-04-03T01:48:50;11.10;45.20
33105;DHT22;19476;51.448;6.674;2023-04-03T01:51:16;11.10;45.20
33105;DHT22;19476;51.448;6.674;2023-04-03T01:53:42;11.10;45.20
33105;DHT22;19476;51.448;6.674;2023-04-03T01:56:08;11.10;45.10
33105;DHT22;19476;51.448;6.674;2023-04-03T01:58:34;11.10;45.10
33105;DHT22;19476;51.448;6.674;2023-04-03T02:01:00;11.00;45.00
33105;DHT22;19476;51.448;6.674;2023-04-03T02:03:26;11.10;45.10
33105;DHT22;19476;51.448;6.674;2023-04-03T02:05:52;11.00;45.00
33105;DHT22;19476;51.448;6.674;2023-04-03T02:08:18;11.10;45.10
33105;DHT22;19476;51.448;6.674;2023-04-03T02:10:47;11.00;44.80
33105;DHT22;19476;51.448;6.674;2023-04-03T02:13:12;11.00;44.90
33105;DHT22;19476;51.448;6.674;2023-04-03T02:15:41;11.00;44.80
33105;DHT22;19476;51.448;6.674;2023-04-03T02:18:07;11.00;44.70
33105;DHT22;19476;51.448;6.674;2023-04-03T02:20:33;11.00;44.70
33105;DHT22;19476;51.448;6.674;2023-04-03T02:22:59;11.00;44.70
33105;DHT22;19476;51.448;6.674;2023-04-03T02:25:25;11.00;44.70
33105;DHT22;19476;51.448;6.674;2023-04-03T02:27:51;11.00;44.70
33105;DHT22;19476;51.448;6.674;2023-04-03T02:30:17;11.00;44.60
33105;DHT22;19476;51.448;6.674;2023-04-03T02:32:43;10.90;44.60
33105;DHT22;19476;51.448;6.674;2023-04-03T02:35:10;10.90;44.50
33105;DHT22;19476;51.448;6.674;2023-04-03T02:37:36;10.90;44.60
33105;DHT22;19476;51.448;6.674;2023-04-03T02:40:04;10.90;44.60
33105;DHT22;19476;51.448;6.674;2023-04-03T02:42:30;10.90;44.60
33105;DHT22;19476;51.448;6.674;2023-04-03T02:44:55;10.90;44.60
33105;DHT22;19476;51.448;6.674;2023-04-03T02:47:21;10.80;44.50
33105;DHT22;19476;51.448;6.674;2023-04-03T02:49:47;10.80;44.60
33105;DHT22;19476;51.448;6.674;2023-04-03T02:52:14;10.80;44.60
33105;DHT22;19476;51.448;6.674;2023-04-03T02:54:39;10.80;44.60
33105;DHT22;19476;51.448;6.674;2023-04-03T02:57:06;10.80;44.50
33105;DHT22;19476;51.448;6.674;2023-04-03T02:59:36;10.80;44.50
33105;DHT22;19476;51.448;6.674;2023-04-03T03:02:02;10.80;44.50
33105;DHT22;19476;51.448;6.674;2023-04-03T03:04:27;10.80;44.40
33105;DHT22;19476;51.448;6.674;2023-04-03T03:06:53;10.80;44.40
33105;DHT22;19476;51.448;6.674;2023-04-03T03:09:18;10.80;44.40
33105;DHT22;19476;51.448;6.674;2023-04-03T03:11:45;10.70;44.30
33105;DHT22;19476;51.448;6.674;2023-04-03T03:14:10;10.70;44.30
33105;DHT22;19476;51.448;6.674;2023-04-03T03:16:36;10.70;44.30
33105;DHT22;19476;51.448;6.674;2023-04-03T03:19:02;10.70;44.40
33105;DHT22;19476;51.448;6.674;2023-04-03T03:21:28;10.70;44.40
33105;DHT22;19476;51.448;6.674;2023-04-03T03:23:53;10.60;44.40
33105;DHT22;19476;51.448;6.674;2023-04-03T03:26:19;10.60;44.40
33105;DHT22;19476;51.448;6.674;2023-04-03T03:28:46;10.60;44.40
33105;DHT22;19476;51.448;6.674;2023-04-03T03:31:11;10.60;44.40
33105;DHT22;19476;51.448;6.674;2023-04-03T03:33:38;10.60;44.30
33105;DHT22;19476;51.448;6.674;2023-04-03T03:36:04;10.50;44.30
33105;DHT22;19476;51.448;6.674;2023-04-03T03:38:29;10.50;44.40
33105;DHT22;19476;51.448;6.674;2023-04-03T03:40:55;10.50;44.40
33105;DHT22;19476;51.448;6.674;2023-04-03T03:43:21;10.50;44.30
33105;DHT22;19476;51.448;6.674;2023-04-03T03:45:54;10.50;44.30
33105;DHT22;19476;51.448;6.674;2023-04-03T03:48:21;10.50;44.30
33105;DHT22;19476;51.448;6.674;2023-04-03T03:50:47;10.40;44.40
33105;DHT22;19476;51.448;6.674;2023-04-03T03:53:13;10.40;44.40
33105;DHT22;19476;51.448;6.674;2023-04-03T03:55:40;10.40;44.40
33105;DHT22;19476;51.448;6.674;2023-04-03T03:58:06;10.30;44.30
33105;DHT22;19476;51.448;6.674;2023-04-03T04:00:32;10.40;44.40
33105;DHT22;19476;51.448;6.674;2023-04-03T04:02:58;10.40;44.30
33105;DHT22;19476;51.448;6.674;2023-04-03T04:05:24;10.30;44.30
33105;DHT22;19476;51.448;6.674;2023-04-03T04:07:50;10.30;44.30
33105;DHT22;19476;51.448;6.674;2023-04-03T04:10:16;10.30;44.40
33105;DHT22;19476;51.448;6.674;2023-04-03T04:12:42;10.30;44.40
33105;DHT22;19476;51.448;6.674;2023-04-03T04:15:08;10.30;44.40
33105;DHT22;19476;51.448;6.674;2023-04-03T04:17:34;10.30;44.50
33105;DHT22;19476;51.448;6.674;2023-04-03T04:20:01;10.30;44.40
33105;DHT22;19476;51.448;6.674;2023-04-03T04:22:28;10.30;44.50
33105;DHT22;19476;51.448;6.674;2023-04-03T04:24:54;10.30;44.40
33105;DHT22;19476;51.448;6.674;2023-04-03T04:27:19;10.30;44.30
33105;DHT22;19476;51.448;6.674;2023-04-03T04:29:45;10.30;44.30
33105;DHT22;19476;51.448;6.674;2023-04-03T04:32:11;10.30;44.20
33105;DHT22;19476;51.448;6.674;2023-04-03T04:34:36;10.20;44.20
33105;DHT22;19476;51.448;6.674;2023-04-03T04:37:02;10.20;44.20
33105;DHT22;19476;51.448;6.674;2023-04-03T04:39:28;10.10;44.20
33105;DHT22;19476;51.448;6.674;2023-04-03T04:41:54;10.10;44.20
33105;DHT22;19476;51.448;6.674;2023-04-03T04:44:19;10.10;44.30
33105;DHT22;19476;51.448;6.674;2023-04-03T04:46:46;10.10;44.30
33105;DHT22;19476;51.448;6.674;2023-04-03T04:49:11;10.00;44.30
33105;DHT22;19476;51.448;6.674;2023-04-03T04:51:37;10.00;44.30
33105;DHT22;19476;51.448;6.674;2023-04-03T04:54:03;10.00;44.40
33105;DHT22;19476;51.448;6.674;2023-04-03T04:56:29;10.00;44.40
33105;DHT22;19476;51.448;6.674;2023-04-03T04:58:55;9.90;44.40
33105;DHT22;19476;51.448;6.674;2023-04-03T05:01:20;9.90;44.50
33105;DHT22;19476;51.448;6.674;2023-04-03T05:03:46;9.90;44.60
33105;DHT22;19476;51.448;6.674;2023-04-03T05:06:13;9.90;44.70
33105;DHT22;19476;51.448;6.674;2023-04-03T05:08:39;9.90;44.70
33105;DHT22;19476;51.448;6.674;2023-04-03T05:11:05;9.80;44.70
33105;DHT22;19476;51.448;6.674;2023-04-03T05:13:30;9.80;44.70
33105;DHT22;19476;51.448;6.674;2023-04-03T05:15:57;9.80;44.80
33105;DHT22;19476;51.448;6.674;2023-04-03T05:18:22;9.80;44.70
33105;DHT22;19476;51.448;6.674;2023-04-03T05:20:49;9.80;44.80
33105;DHT22;19476;51.448;6.674;2023-04-03T05:23:16;9.80;44.90
33105;DHT22;19476;51.448;6.674;2023-04-03T05:25:41;9.80;45.00
33105;DHT22;19476;51.448;6.674;2023-04-03T05:28:09;9.80;44.90
33105;DHT22;19476;51.448;6.674;2023-04-03T05:30:35;9.80;44.80
33105;DHT22;19476;51.448;6.674;2023-04-03T05:33:01;9.80;44.90
33105;DHT22;19476;51.448;6.674;2023-04-03T05:35:27;9.80;44.90
33105;DHT22;19476;51.448;6.674;2023-04-03T05:37:52;9.80;44.90
33105;DHT22;19476;51.448;6.674;2023-04-03T05:40:18;9.80;44.90
33105;DHT22;19476;51.448;6.674;2023-04-03T05:42:44;9.80;44.90
33105;DHT22;19476;51.448;6.674;2023-04-03T05:45:10;9.80;44.90
33105;DHT22;19476;51.448;6.674;2023-04-03T05:47:36;9.80;44.90
33105;DHT22;19476;51.448;6.674;2023-04-03T05:50:02;9.80;45.00
33105;DHT22;19476;51.448;6.674;2023-04-03T05:52:30;9.80;45.00
33105;DHT22;19476;51.448;6.674;2023-04-03T05:54:57;9.80;45.00
33105;DHT22;19476;51.448;6.674;2023-04-03T05:57:23;9.80;45.10
33105;DHT22;19476;51.448;6.674;2023-04-03T05:59:49;9.80;45.10
33105;DHT22;19476;51.448;6.674;2023-04-03T06:02:18;9.80;45.20
33105;DHT22;19476;51.448;6.674;2023-04-03T06:04:44;9.90;45.20
33105;DHT22;19476;51.448;6.674;2023-04-03T06:07:16;9.90;45.00
33105;DHT22;19476;51.448;6.674;2023-04-03T06:09:42;9.90;44.90
33105;DHT22;19476;51.448;6.674;2023-04-03T06:12:09;9.90;44.90
33105;DHT22;19476;51.448;6.674;2023-04-03T06:14:35;9.90;44.90
33105;DHT22;19476;51.448;6.674;2023-04-03T06:17:01;9.90;44.80
33105;DHT22;19476;51.448;6.674;2023-04-03T06:19:27;9.90;44.80
33105;DHT22;19476;51.448;6.674;2023-04-03T06:21:54;9.90;44.80
33105;DHT22;19476;51.448;6.674;2023-04-03T06:24:20;9.90;44.90
33105;DHT22;19476;51.448;6.674;2023-04-03T06:26:47;9.90;44.90
33105;DHT22;19476;51.448;6.674;2023-04-03T06:29:19;9.90;44.90
33105;DHT22;19476;51.448;6.674;2023-04-03T06:31:45;9.90;44.90
33105;DHT22;19476;51.448;6.674;2023-04-03T06:34:11;9.90;44.90
33105;DHT22;19476;51.448;6.674;2023-04-03T06:36:38;9.90;44.90
33105;DHT22;19476;51.448;6.674;2023-04-03T06:39:05;9.90;44.90
33105;DHT22;19476;51.448;6.674;2023-04-03T06:41:31;9.90;44.80
33105;DHT22;19476;51.448;6.674;2023-04-03T06:43:56;9.90;44.80
33105;DHT22;19476;51.448;6.674;2023-04-03T06:46:24;9.90;44.70
33105;DHT22;19476;51.448;6.674;2023-04-03T06:48:51;9.90;44.80
33105;DHT22;19476;51.448;6.674;2023-04-03T06:51:23;10.00;44.90
33105;DHT22;19476;51.448;6.674;2023-04-03T06:53:51;10.00;44.80
33105;DHT22;19476;51.448;6.674;2023-04-03T06:56:17;10.00;44.90
33105;DHT22;19476;51.448;6.674;2023-04-03T06:58:44;10.10;44.90
33105;DHT22;19476;51.448;6.674;2023-04-03T07:01:11;10.10;44.90
33105;DHT22;19476;51.448;6.674;2023-04-03T07:03:38;10.10;44.80
33105;DHT22;19476;51.448;6.674;2023-04-03T07:06:04;10.20;44.60
33105;DHT22;19476;51.448;6.674;2023-04-03T07:08:31;10.20;44.50
33105;DHT22;19476;51.448;6.674;2023-04-03T07:10:57;10.30;44.50
33105;DHT22;19476;51.448;6.674;2023-04-03T07:13:23;10.30;44.30
33105;DHT22;19476;51.448;6.674;2023-04-03T07:15:49;10.30;44.30
33105;DHT22;19476;51.448;6.674;2023-04-03T07:18:15;10.40;44.40
33105;DHT22;19476;51.448;6.674;2023-04-03T07:20:43;10.40;44.10
33105;DHT22;19476;51.448;6.674;2023-04-03T07:23:09;10.40;44.10
33105;DHT22;19476;51.448;6.674;2023-04-03T07:25:36;10.50;43.80
33105;DHT22;19476;51.448;6.674;2023-04-03T07:28:01;10.50;43.70
33105;DHT22;19476;51.448;6.674;2023-04-03T07:30:27;10.50;43.40
33105;DHT22;19476;51.448;6.674;2023-04-03T07:32:53;10.50;43.30
33105;DHT22;19476;51.448;6.674;2023-04-03T07:35:19;10.60;43.30
33105;DHT22;19476;51.448;6.674;2023-04-03T07:37:44;10.60;43.20
33105;DHT22;19476;51.448;6.674;2023-04-03T07:40:10;10.60;43.10
33105;DHT22;19476;51.448;6.674;2023-04-03T07:42:36;10.60;43.00
33105;DHT22;19476;51.448;6.674;2023-04-03T07:45:05;10.60;43.00
33105;DHT22;19476;51.448;6.674;2023-04-03T07:47:31;10.60;42.70
33105;DHT22;19476;51.448;6.674;2023-04-03T07:49:57;10.70;43.10
33105;DHT22;19476;51.448;6.674;2023-04-03T07:52:23;10.70;43.00
33105;DHT22;19476;51.448;6.674;2023-04-03T07:54:50;10.70;42.80
33105;DHT22;19476;51.448;6.674;2023-04-03T07:57:15;10.80;42.80
33105;DHT22;19476;51.448;6.674;2023-04-03T07:59:41;10.80;42.20
33105;DHT22;19476;51.448;6.674;2023-04-03T08:02:11;10.90;42.40
33105;DHT22;19476;51.448;6.674;2023-04-03T08:04:38;10.90;42.50
33105;DHT22;19476;51.448;6.674;2023-04-03T08:07:04;10.90;42.80
33105;DHT22;19476;51.448;6.674;2023-04-03T08:09:30;11.00;43.00
33105;DHT22;19476;51.448;6.674;2023-04-03T08:11:57;11.10;42.90
33105;DHT22;19476;51.448;6.674;2023-04-03T08:14:23;11.10;42.70
33105;DHT22;19476;51.448;6.674;2023-04-03T08:16:49;11.20;41.70
33105;DHT22;19476;51.448;6.674;2023-04-03T08:19:16;11.30;41.40
33105;DHT22;19476;51.448;6.674;2023-04-03T08:21:44;11.40;41.20
33105;DHT22;19476;51.448;6.674;2023-04-03T08:24:11;11.40;40.70
33105;DHT22;19476;51.448;6.674;2023-04-03T08:26:37;11.50;39.80
33105;DHT22;19476;51.448;6.674;2023-04-03T08:29:03;11.60;38.70
33105;DHT22;19476;51.448;6.674;2023-04-03T08:31:29;11.60;39.10
33105;DHT22;19476;51.448;6.674;2023-04-03T08:33:56;11.60;38.60
33105;DHT22;19476;51.448;6.674;2023-04-03T08:36:26;11.70;38.80
33105;DHT22;19476;51.448;6.674;2023-04-03T08:38:53;11.70;39.00
33105;DHT22;19476;51.448;6.674;2023-04-03T08:41:20;11.80;39.30
33105;DHT22;19476;51.448;6.674;2023-04-03T08:52:08;12.20;37.60
33105;DHT22;19476;51.448;6.674;2023-04-03T08:54:56;12.20;37.50
33105;DHT22;19476;51.448;6.674;2023-04-03T08:57:35;12.30;36.30
33105;DHT22;19476;51.448;6.674;2023-04-03T09:00:19;12.40;36.40
33105;DHT22;19476;51.448;6.674;2023-04-03T09:02:50;12.40;36.20
33105;DHT22;19476;51.448;6.674;2023-04-03T09:05:19;12.50;36.40
33105;DHT22;19476;51.448;6.674;2023-04-03T09:07:49;12.50;36.00
33105;DHT22;19476;51.448;6.674;2023-04-03T09:10:27;12.60;36.10
33105;DHT22;19476;51.448;6.674;2023-04-03T09:16:28;12.70;35.00
33105;DHT22;19476;51.448;6.674;2023-04-03T09:21:41;12.80;34.90
33105;DHT22;19476;51.448;6.674;2023-04-03T09:24:12;12.90;35.20
33105;DHT22;19476;51.448;6.674;2023-04-03T09:26:48;12.90;34.80
33105;DHT22;19476;51.448;6.674;2023-04-03T09:29:22;13.00;34.30
33105;DHT22;19476;51.448;6.674;2023-04-03T09:31:51;13.00;33.40
33105;DHT22;19476;51.448;6.674;2023-04-03T09:34:25;13.00;33.50
33105;DHT22;19476;51.448;6.674;2023-04-03T09:36:54;13.00;32.90
33105;DHT22;19476;51.448;6.674;2023-04-03T09:39:28;13.10;32.80
33105;DHT22;19476;51.448;6.674;2023-04-03T09:44:36;13.10;32.30
33105;DHT22;19476;51.448;6.674;2023-04-03T09:49:43;13.20;31.10
33105;DHT22;19476;51.448;6.674;2023-04-03T09:52:25;13.20;31.60
33105;DHT22;19476;51.448;6.674;2023-04-03T09:54:52;13.30;30.70
33105;DHT22;19476;51.448;6.674;2023-04-03T09:57:17;13.30;32.00
33105;DHT22;19476;51.448;6.674;2023-04-03T10:00:00;13.40;32.30
33105;DHT22;19476;51.448;6.674;2023-04-03T10:02:38;13.40;30.10
33105;DHT22;19476;51.448;6.674;2023-04-03T10:08:14;13.50;29.50
33105;DHT22;19476;51.448;6.674;2023-04-03T10:10:47;13.50;28.80
33105;DHT22;19476;51.448;6.674;2023-04-03T10:13:17;13.60;29.70
33105;DHT22;19476;51.448;6.674;2023-04-03T10:20:50;13.70;29.70
33105;DHT22;19476;51.448;6.674;2023-04-03T10:23:21;13.70;29.70
33105;DHT22;19476;51.448;6.674;2023-04-03T10:28:46;13.90;28.30
33105;DHT22;19476;51.448;6.674;2023-04-03T10:31:43;13.90;29.10
33105;DHT22;19476;51.448;6.674;2023-04-03T10:34:30;14.00;28.90
33105;DHT22;19476;51.448;6.674;2023-04-03T10:37:46;14.10;27.80
33105;DHT22;19476;51.448;6.674;2023-04-03T10:39:59;14.10;28.40
33105;DHT22;19476;51.448;6.674;2023-04-03T10:42:53;14.20;27.60
33105;DHT22;19476;51.448;6.674;2023-04-03T10:51:55;14.30;27.60
33105;DHT22;19476;51.448;6.674;2023-04-03T10:54:03;14.30;27.40
33105;DHT22;19476;51.448;6.674;2023-04-03T10:56:37;14.40;27.30
33105;DHT22;19476;51.448;6.674;2023-04-03T11:02:37;14.40;27.00
33105;DHT22;19476;51.448;6.674;2023-04-03T11:04:39;14.50;28.00
33105;DHT22;19476;51.448;6.674;2023-04-03T11:09:46;14.60;28.30
33105;DHT22;19476;51.448;6.674;2023-04-03T11:12:26;14.70;27.80
33105;DHT22;19476;51.448;6.674;2023-04-03T11:14:54;14.70;27.80
33105;DHT22;19476;51.448;6.674;2023-04-03T11:17:28;14.80;28.00
33105;DHT22;19476;51.448;6.674;2023-04-03T11:22:41;14.90;27.80
33105;DHT22;19476;51.448;6.674;2023-04-03T11:27:58;15.10;28.80
33105;DHT22;19476;51.448;6.674;2023-04-03T11:33:14;15.30;27.60
33105;DHT22;19476;51.448;6.674;2023-04-03T11:35:45;15.30;28.40
33105;DHT22;19476;51.448;6.674;2023-04-03T11:38:27;15.40;28.50
33105;DHT22;19476;51.448;6.674;2023-04-03T11:40:56;15.50;28.00
33105;DHT22;19476;51.448;6.674;2023-04-03T11:43:30;15.60;28.30
33105;DHT22;19476;51.448;6.674;2023-04-03T11:46:04;15.60;27.90
33105;DHT22;19476;51.448;6.674;2023-04-03T11:53:39;15.80;27.60
33105;DHT22;19476;51.448;6.674;2023-04-03T12:01:54;16.00;27.80
33105;DHT22;19476;51.448;6.674;2023-04-03T12:04:25;16.10;27.80
33105;DHT22;19476;51.448;6.674;2023-04-03T12:09:54;16.20;27.80
33105;DHT22;19476;51.448;6.674;2023-04-03T12:12:39;16.30;27.10
33105;DHT22;19476;51.448;6.674;2023-04-03T12:15:47;16.30;27.30
33105;DHT22;19476;51.448;6.674;2023-04-03T12:19:26;16.40;27.80
33105;DHT22;19476;51.448;6.674;2023-04-03T12:26:51;16.70;27.10
33105;DHT22;19476;51.448;6.674;2023-04-03T12:45:27;17.50;26.30
33105;DHT22;19476;51.448;6.674;2023-04-03T12:47:54;17.60;27.10
33105;DHT22;19476;51.448;6.674;2023-04-03T12:50:31;17.70;27.20
33105;DHT22;19476;51.448;6.674;2023-04-03T12:53:06;17.90;26.30
33105;DHT22;19476;51.448;6.674;2023-04-03T12:55:32;18.00;26.40
33105;DHT22;19476;51.448;6.674;2023-04-03T13:00:59;18.40;26.30
33105;DHT22;19476;51.448;6.674;2023-04-03T13:03:27;18.50;25.80
33105;DHT22;19476;51.448;6.674;2023-04-03T13:06:02;18.70;26.30
33105;DHT22;19476;51.448;6.674;2023-04-03T13:08:30;18.80;25.60
33105;DHT22;19476;51.448;6.674;2023-04-03T13:11:05;18.90;26.00
33105;DHT22;19476;51.448;6.674;2023-04-03T13:13:33;19.00;24.90
33105;DHT22;19476;51.448;6.674;2023-04-03T13:15:58;19.10;25.10
33105;DHT22;19476;51.448;6.674;2023-04-03T13:18:33;19.10;25.10
33105;DHT22;19476;51.448;6.674;2023-04-03T13:21:06;19.20;24.60
33105;DHT22;19476;51.448;6.674;2023-04-03T13:23:36;19.60;25.70
33105;DHT22;19476;51.448;6.674;2023-04-03T13:26:04;19.30;25.50
33105;DHT22;19476;51.448;6.674;2023-04-03T13:28:32;19.40;25.30
33105;DHT22;19476;51.448;6.674;2023-04-03T13:31:04;19.50;25.50
33105;DHT22;19476;51.448;6.674;2023-04-03T13:33:34;19.60;24.80
33105;DHT22;19476;51.448;6.674;2023-04-03T13:36:40;19.70;25.00
33105;DHT22;19476;51.448;6.674;2023-04-03T13:39:22;19.80;24.80
33105;DHT22;19476;51.448;6.674;2023-04-03T13:41:51;19.90;24.40
33105;DHT22;19476;51.448;6.674;2023-04-03T13:44:34;20.40;24.50
33105;DHT22;19476;51.448;6.674;2023-04-03T13:47:22;20.10;24.30
33105;DHT22;19476;51.448;6.674;2023-04-03T13:50:12;20.20;24.10
33105;DHT22;19476;51.448;6.674;2023-04-03T13:52:48;20.10;24.20
33105;DHT22;19476;51.448;6.674;2023-04-03T13:55:24;20.30;24.20
33105;DHT22;19476;51.448;6.674;2023-04-03T14:00:38;20.40;24.00
33105;DHT22;19476;51.448;6.674;2023-04-03T14:05:45;20.50;23.80
33105;DHT22;19476;51.448;6.674;2023-04-03T14:08:11;20.50;24.50
33105;DHT22;19476;51.448;6.674;2023-04-03T14:10:37;20.60;25.00
33105;DHT22;19476;51.448;6.674;2023-04-03T14:13:03;20.60;24.20
33105;DHT22;19476;51.448;6.674;2023-04-03T14:15:30;20.60;24.10
33105;DHT22;19476;51.448;6.674;2023-04-03T14:17:57;20.70;24.30
33105;DHT22;19476;51.448;6.674;2023-04-03T14:20:25;20.70;24.40
33105;DHT22;19476;51.448;6.674;2023-04-03T14:22:52;20.80;24.10
33105;DHT22;19476;51.448;6.674;2023-04-03T14:25:20;20.80;23.70
33105;DHT22;19476;51.448;6.674;2023-04-03T14:27:48;20.90;24.00
33105;DHT22;19476;51.448;6.674;2023-04-03T14:30:22;20.90;24.40
33105;DHT22;19476;51.448;6.674;2023-04-03T14:32:48;21.00;23.70
33105;DHT22;19476;51.448;6.674;2023-04-03T14:35:16;21.00;23.50
33105;DHT22;19476;51.448;6.674;2023-04-03T14:37:43;21.00;23.90
33105;DHT22;19476;51.448;6.674;2023-04-03T14:40:13;21.00;23.90
33105;DHT22;19476;51.448;6.674;2023-04-03T14:42:40;21.00;24.00
33105;DHT22;19476;51.448;6.674;2023-04-03T14:45:09;21.10;23.90
33105;DHT22;19476;51.448;6.674;2023-04-03T14:47:49;21.10;23.80
33105;DHT22;19476;51.448;6.674;2023-04-03T14:50:19;21.20;23.90
33105;DHT22;19476;51.448;6.674;2023-04-03T14:52:47;21.30;23.80
33105;DHT22;19476;51.448;6.674;2023-04-03T14:55:16;21.40;24.00
33105;DHT22;19476;51.448;6.674;2023-04-03T14:57:42;21.50;23.70
33105;DHT22;19476;51.448;6.674;2023-04-03T15:00:14;21.60;23.90
33105;DHT22;19476;51.448;6.674;2023-04-03T15:02:41;21.70;23.50
33105;DHT22;19476;51.448;6.674;2023-04-03T15:05:09;21.80;23.40
33105;DHT22;19476;51.448;6.674;2023-04-03T15:07:40;21.90;23.40
33105;DHT22;19476;51.448;6.674;2023-04-03T15:10:19;21.90;22.80
33105;DHT22;19476;51.448;6.674;2023-04-03T15:12:47;21.90;23.00
33105;DHT22;19476;51.448;6.674;2023-04-03T15:15:14;21.90;23.10
33105;DHT22;19476;51.448;6.674;2023-04-03T15:17:41;21.90;23.20
33105;DHT22;19476;51.448;6.674;2023-04-03T15:20:32;21.90;23.40
33105;DHT22;19476;51.448;6.674;2023-04-03T15:23:00;22.00;23.30
33105;DHT22;19476;51.448;6.674;2023-04-03T15:25:30;22.00;23.30
33105;DHT22;19476;51.448;6.674;2023-04-03T15:27:57;22.00;23.50
33105;DHT22;19476;51.448;6.674;2023-04-03T15:30:24;21.90;23.60
33105;DHT22;19476;51.448;6.674;2023-04-03T15:32:50;22.00;23.60
33105;DHT22;19476;51.448;6.674;2023-04-03T15:35:16;22.10;23.60
33105;DHT22;19476;51.448;6.674;2023-04-03T15:37:42;22.20;23.60
33105;DHT22;19476;51.448;6.674;2023-04-03T15:40:08;22.40;23.70
33105;DHT22;19476;51.448;6.674;2023-04-03T15:42:34;22.50;23.40
33105;DHT22;19476;51.448;6.674;2023-04-03T15:45:00;22.60;23.40
33105;DHT22;19476;51.448;6.674;2023-04-03T15:47:26;22.80;23.30
33105;DHT22;19476;51.448;6.674;2023-04-03T15:49:54;22.90;23.10
33105;DHT22;19476;51.448;6.674;2023-04-03T15:52:20;23.00;23.10
33105;DHT22;19476;51.448;6.674;2023-04-03T15:54:46;23.10;23.20
33105;DHT22;19476;51.448;6.674;2023-04-03T15:57:11;23.20;23.30
33105;DHT22;19476;51.448;6.674;2023-04-03T15:59:37;23.40;23.20
33105;DHT22;19476;51.448;6.674;2023-04-03T16:02:05;23.50;23.20
33105;DHT22;19476;51.448;6.674;2023-04-03T16:04:33;23.60;23.10
33105;DHT22;19476;51.448;6.674;2023-04-03T16:07:02;23.70;23.10
33105;DHT22;19476;51.448;6.674;2023-04-03T16:09:28;23.90;22.20
33105;DHT22;19476;51.448;6.674;2023-04-03T16:11:54;23.90;22.50
33105;DHT22;19476;51.448;6.674;2023-04-03T16:14:20;24.00;22.50
33105;DHT22;19476;51.448;6.674;2023-04-03T16:16:45;24.00;22.40
33105;DHT22;19476;51.448;6.674;2023-04-03T16:19:12;24.10;22.50
33105;DHT22;19476;51.448;6.674;2023-04-03T16:21:38;24.10;22.40
33105;DHT22;19476;51.448;6.674;2023-04-03T16:24:04;24.20;22.60
33105;DHT22;19476;51.448;6.674;2023-04-03T16:26:31;24.20;22.20
33105;DHT22;19476;51.448;6.674;2023-04-03T16:28:57;24.40;22.30
33105;DHT22;19476;51.448;6.674;2023-04-03T16:31:24;24.30;21.90
33105;DHT22;19476;51.448;6.674;2023-04-03T16:33:50;24.30;22.00
33105;DHT22;19476;51.448;6.674;2023-04-03T16:36:16;24.40;21.90
33105;DHT22;19476;51.448;6.674;2023-04-03T16:38:42;24.40;22.10
33105;DHT22;19476;51.448;6.674;2023-04-03T16:41:07;24.40;21.90
33105;DHT22;19476;51.448;6.674;2023-04-03T16:43:33;24.50;22.10
33105;DHT22;19476;51.448;6.674;2023-04-03T16:46:01;24.50;22.10
33105;DHT22;19476;51.448;6.674;2023-04-03T16:48:28;24.60;22.20
33105;DHT22;19476;51.448;6.674;2023-04-03T16:50:54;24.70;22.30
33105;DHT22;19476;51.448;6.674;2023-04-03T16:53:22;24.70;22.10
33105;DHT22;19476;51.448;6.674;2023-04-03T16:55:49;24.70;22.00
33105;DHT22;19476;51.448;6.674;2023-04-03T16:58:15;24.70;22.00
33105;DHT22;19476;51.448;6.674;2023-04-03T17:00:41;24.70;22.00
33105;DHT22;19476;51.448;6.674;2023-04-03T17:03:07;24.70;22.20
33105;DHT22;19476;51.448;6.674;2023-04-03T17:05:33;24.70;22.30
33105;DHT22;19476;51.448;6.674;2023-04-03T17:07:59;24.70;22.10
33105;DHT22;19476;51.448;6.674;2023-04-03T17:10:26;24.60;22.10
33105;DHT22;19476;51.448;6.674;2023-04-03T17:12:52;24.60;21.90
33105;DHT22;19476;51.448;6.674;2023-04-03T17:15:18;24.60;22.00
33105;DHT22;19476;51.448;6.674;2023-04-03T17:17:46;24.50;22.20
33105;DHT22;19476;51.448;6.674;2023-04-03T17:20:12;24.40;22.20
33105;DHT22;19476;51.448;6.674;2023-04-03T17:22:38;24.40;22.50
33105;DHT22;19476;51.448;6.674;2023-04-03T17:25:04;24.40;22.50